sensor_id;sensor_type;location;lat;lon;timestamp;pressure;altitude;pressure_sealevel;temperature;humidity
34237;BME280;20501;45.956;13.632;2023-04-29T00:01:33;100605.00;;;11.44;65.67
34237;BME280;20501;45.956;13.632;2023-04-29T00:03:59;100603.16;;;11.82;64.74
34237;BME280;20501;45.956;13.632;2023-04-29T00:06:24;100600.44;;;11.15;65.85
34237;BME280;20501;45.956;13.632;2023-04-29T00:08:50;100599.09;;;12.34;65.12
34237;BME280;20501;45.956;13.632;2023-04-29T00:11:16;100584.94;;;12.22;65.53
34237;BME280;20501;45.956;13.632;2023-04-29T00:13:41;100588.88;;;12.92;64.30
34237;BME280;20501;45.956;13.632;2023-04-29T00:16:07;100587.66;;;13.04;63.54
34237;BME280;20501;45.956;13.632;2023-04-29T00:18:34;100584.28;;;13.10;61.17
34237;BME280;20501;45.956;13.632;2023-04-29T00:21:00;100588.47;;;13.23;62.88
34237;BME280;20501;45.956;13.632;2023-04-29T00:23:26;100587.16;;;13.71;61.90
34237;BME280;20501;45.956;13.632;2023-04-29T00:25:51;100588.06;;;13.88;61.33
34237;BME280;20501;45.956;13.632;2023-04-29T00:28:18;100581.03;;;14.04;60.85
34237;BME280;20501;45.956;13.632;2023-04-29T00:30:43;100587.16;;;13.71;61.49
34237;BME280;20501;45.956;13.632;2023-04-29T00:33:08;100580.78;;;13.54;61.02
34237;BME280;20501;45.956;13.632;2023-04-29T00:35:34;100579.88;;;13.80;61.27
34237;BME280;20501;45.956;13.632;2023-04-29T00:37:59;100588.59;;;14.27;60.27
34237;BME280;20501;45.956;13.632;2023-04-29T00:40:26;100585.19;;;14.33;60.08
34237;BME280;20501;45.956;13.632;2023-04-29T00:42:52;100597.47;;;14.37;59.84
34237;BME280;20501;45.956;13.632;2023-04-29T00:45:18;100597.13;;;14.40;59.86
34237;BME280;20501;45.956;13.632;2023-04-29T00:47:43;100592.25;;;14.60;58.97
34237;BME280;20501;45.956;13.632;2023-04-29T00:50:09;100597.66;;;14.52;59.37
34237;BME280;20501;45.956;13.632;2023-04-29T00:52:36;100602.59;;;14.57;59.35
34237;BME280;20501;45.956;13.632;2023-04-29T00:55:04;100606.81;;;14.43;59.84
34237;BME280;20501;45.956;13.632;2023-04-29T00:57:30;100598.78;;;13.90;59.82
34237;BME280;20501;45.956;13.632;2023-04-29T00:59:56;100604.44;;;14.39;60.00
34237;BME280;20501;45.956;13.632;2023-04-29T01:02:22;100598.38;;;14.11;60.81
34237;BME280;20501;45.956;13.632;2023-04-29T01:04:49;100587.41;;;14.29;60.38
34237;BME280;20501;45.956;13.632;2023-04-29T01:07:25;100579.66;;;14.43;59.91
34237;BME280;20501;45.956;13.632;2023-04-29T01:10:27;100568.66;;;14.09;58.76
34237;BME280;20501;45.956;13.632;2023-04-29T01:16:16;100565.41;;;11.43;64.99
34237;BME280;20501;45.956;13.632;2023-04-29T01:18:26;100558.44;;;12.80;64.81
34237;BME280;20501;45.956;13.632;2023-04-29T01:20:55;100553.34;;;13.39;61.83
34237;BME280;20501;45.956;13.632;2023-04-29T01:23:26;100553.69;;;14.05;60.68
34237;BME280;20501;45.956;13.632;2023-04-29T01:25:51;100558.50;;;14.20;60.14
34237;BME280;20501;45.956;13.632;2023-04-29T01:31:37;100568.13;;;11.43;64.92
34237;BME280;20501;45.956;13.632;2023-04-29T01:34:20;100576.72;;;11.76;66.49
34237;BME280;20501;45.956;13.632;2023-04-29T01:44:57;100562.31;;;12.77;64.70
34237;BME280;20501;45.956;13.632;2023-04-29T01:47:26;100550.19;;;13.26;63.38
34237;BME280;20501;45.956;13.632;2023-04-29T01:49:51;100553.13;;;13.32;61.04
34237;BME280;20501;45.956;13.632;2023-04-29T01:52:16;100526.13;;;11.76;66.58
34237;BME280;20501;45.956;13.632;2023-04-29T01:54:42;100533.59;;;11.65;67.45
34237;BME280;20501;45.956;13.632;2023-04-29T01:57:08;100533.16;;;10.92;67.86
34237;BME280;20501;45.956;13.632;2023-04-29T01:59:33;100529.72;;;11.67;67.74
34237;BME280;20501;45.956;13.632;2023-04-29T02:01:59;100544.63;;;12.37;66.04
34237;BME280;20501;45.956;13.632;2023-04-29T02:04:24;100538.91;;;12.94;61.88
34237;BME280;20501;45.956;13.632;2023-04-29T02:06:50;100535.84;;;12.71;64.82
34237;BME280;20501;45.956;13.632;2023-04-29T02:09:18;100543.16;;;11.87;65.80
34237;BME280;20501;45.956;13.632;2023-04-29T02:11:44;100545.09;;;12.87;62.66
34237;BME280;20501;45.956;13.632;2023-04-29T02:14:09;100541.56;;;13.49;62.39
34237;BME280;20501;45.956;13.632;2023-04-29T02:16:37;100546.63;;;14.21;60.09
34237;BME280;20501;45.956;13.632;2023-04-29T02:19:02;100549.53;;;12.69;64.17
34237;BME280;20501;45.956;13.632;2023-04-29T02:21:28;100540.16;;;12.46;62.63
34237;BME280;20501;45.956;13.632;2023-04-29T02:23:53;100536.22;;;13.21;63.01
34237;BME280;20501;45.956;13.632;2023-04-29T02:26:19;100531.25;;;12.90;63.27
34237;BME280;20501;45.956;13.632;2023-04-29T02:28:44;100522.09;;;12.91;63.98
34237;BME280;20501;45.956;13.632;2023-04-29T02:31:10;100517.44;;;12.11;63.52
34237;BME280;20501;45.956;13.632;2023-04-29T02:33:36;100519.69;;;12.15;63.89
34237;BME280;20501;45.956;13.632;2023-04-29T02:36:01;100517.75;;;12.26;65.54
34237;BME280;20501;45.956;13.632;2023-04-29T02:38:27;100512.63;;;12.68;63.77
34237;BME280;20501;45.956;13.632;2023-04-29T02:40:52;100515.25;;;13.05;63.61
34237;BME280;20501;45.956;13.632;2023-04-29T02:43:18;100502.94;;;13.10;63.03
34237;BME280;20501;45.956;13.632;2023-04-29T02:45:43;100491.78;;;12.15;63.52
34237;BME280;20501;45.956;13.632;2023-04-29T02:48:09;100486.41;;;13.48;62.50
34237;BME280;20501;45.956;13.632;2023-04-29T02:50:34;100484.84;;;13.80;61.50
34237;BME280;20501;45.956;13.632;2023-04-29T02:52:59;100480.66;;;13.25;61.48
34237;BME280;20501;45.956;13.632;2023-04-29T02:55:25;100479.59;;;12.19;63.13
34237;BME280;20501;45.956;13.632;2023-04-29T02:57:51;100475.31;;;12.89;62.43
34237;BME280;20501;45.956;13.632;2023-04-29T03:00:17;100475.81;;;12.66;65.38
34237;BME280;20501;45.956;13.632;2023-04-29T03:02:42;100477.91;;;11.62;64.65
34237;BME280;20501;45.956;13.632;2023-04-29T03:05:08;100481.50;;;11.53;65.54
34237;BME280;20501;45.956;13.632;2023-04-29T03:07:34;100482.06;;;11.84;64.44
34237;BME280;20501;45.956;13.632;2023-04-29T03:09:59;100483.34;;;11.14;67.06
34237;BME280;20501;45.956;13.632;2023-04-29T03:12:25;100506.03;;;10.64;68.94
34237;BME280;20501;45.956;13.632;2023-04-29T03:14:51;100502.63;;;10.62;69.36
34237;BME280;20501;45.956;13.632;2023-04-29T03:17:17;100500.44;;;11.53;66.92
34237;BME280;20501;45.956;13.632;2023-04-29T03:19:42;100497.13;;;11.97;64.61
34237;BME280;20501;45.956;13.632;2023-04-29T03:22:08;100490.59;;;12.72;64.36
34237;BME280;20501;45.956;13.632;2023-04-29T03:24:36;100491.00;;;12.59;64.77
34237;BME280;20501;45.956;13.632;2023-04-29T03:27:02;100493.00;;;11.65;67.26
34237;BME280;20501;45.956;13.632;2023-04-29T03:29:29;100489.09;;;11.39;67.20
34237;BME280;20501;45.956;13.632;2023-04-29T03:31:55;100481.66;;;11.51;65.82
34237;BME280;20501;45.956;13.632;2023-04-29T03:34:21;100486.69;;;10.79;69.18
34237;BME280;20501;45.956;13.632;2023-04-29T03:36:46;100485.72;;;11.65;65.55
34237;BME280;20501;45.956;13.632;2023-04-29T03:39:12;100489.06;;;12.15;64.00
34237;BME280;20501;45.956;13.632;2023-04-29T03:41:37;100493.41;;;12.62;64.67
34237;BME280;20501;45.956;13.632;2023-04-29T03:44:04;100489.59;;;11.63;66.10
34237;BME280;20501;45.956;13.632;2023-04-29T03:46:29;100489.44;;;12.20;64.58
34237;BME280;20501;45.956;13.632;2023-04-29T03:48:55;100479.91;;;12.34;63.94
34237;BME280;20501;45.956;13.632;2023-04-29T03:51:24;100474.97;;;12.29;63.54
34237;BME280;20501;45.956;13.632;2023-04-29T03:53:50;100469.34;;;13.03;63.53
34237;BME280;20501;45.956;13.632;2023-04-29T03:56:17;100459.28;;;13.22;62.99
34237;BME280;20501;45.956;13.632;2023-04-29T03:58:42;100440.66;;;13.27;60.88
34237;BME280;20501;45.956;13.632;2023-04-29T04:01:08;100444.38;;;12.73;63.15
34237;BME280;20501;45.956;13.632;2023-04-29T04:03:33;100442.09;;;12.87;62.22
34237;BME280;20501;45.956;13.632;2023-04-29T04:05:59;100443.91;;;12.78;63.24
34237;BME280;20501;45.956;13.632;2023-04-29T04:08:25;100434.38;;;13.00;62.68
34237;BME280;20501;45.956;13.632;2023-04-29T04:10:50;100443.78;;;12.88;62.50
34237;BME280;20501;45.956;13.632;2023-04-29T04:13:16;100444.50;;;13.42;61.17
34237;BME280;20501;45.956;13.632;2023-04-29T04:15:41;100448.25;;;13.23;61.62
34237;BME280;20501;45.956;13.632;2023-04-29T04:18:07;100438.91;;;13.87;61.25
34237;BME280;20501;45.956;13.632;2023-04-29T04:20:35;100464.22;;;13.26;63.02
34237;BME280;20501;45.956;13.632;2023-04-29T04:23:01;100474.34;;;12.53;63.28
34237;BME280;20501;45.956;13.632;2023-04-29T04:25:26;100475.34;;;13.41;62.37
34237;BME280;20501;45.956;13.632;2023-04-29T04:27:52;100494.00;;;12.92;63.44
34237;BME280;20501;45.956;13.632;2023-04-29T04:30:18;100502.47;;;12.97;63.53
34237;BME280;20501;45.956;13.632;2023-04-29T04:32:43;100508.28;;;11.56;67.25
34237;BME280;20501;45.956;13.632;2023-04-29T04:35:09;100514.91;;;11.24;66.94
34237;BME280;20501;45.956;13.632;2023-04-29T04:37:34;100514.00;;;11.81;66.16
34237;BME280;20501;45.956;13.632;2023-04-29T04:40:00;100511.94;;;11.92;65.30
34237;BME280;20501;45.956;13.632;2023-04-29T04:42:26;100524.38;;;11.85;65.84
34237;BME280;20501;45.956;13.632;2023-04-29T04:44:52;100524.50;;;11.56;67.42
34237;BME280;20501;45.956;13.632;2023-04-29T04:47:17;100526.47;;;12.01;64.66
34237;BME280;20501;45.956;13.632;2023-04-29T04:49:43;100518.31;;;12.47;64.07
34237;BME280;20501;45.956;13.632;2023-04-29T04:52:08;100524.66;;;12.74;64.88
34237;BME280;20501;45.956;13.632;2023-04-29T04:54:34;100513.66;;;11.93;65.88
34237;BME280;20501;45.956;13.632;2023-04-29T04:56:59;100505.75;;;12.10;65.72
34237;BME280;20501;45.956;13.632;2023-04-29T04:59:25;100482.84;;;13.48;62.73
34237;BME280;20501;45.956;13.632;2023-04-29T05:01:50;100481.16;;;12.76;62.35
34237;BME280;20501;45.956;13.632;2023-04-29T05:04:16;100476.19;;;11.23;66.65
34237;BME280;20501;45.956;13.632;2023-04-29T05:06:41;100484.22;;;11.53;66.46
34237;BME280;20501;45.956;13.632;2023-04-29T05:09:06;100491.69;;;11.69;67.37
34237;BME280;20501;45.956;13.632;2023-04-29T05:11:32;100491.13;;;12.75;64.88
34237;BME280;20501;45.956;13.632;2023-04-29T05:13:57;100488.03;;;13.67;61.74
34237;BME280;20501;45.956;13.632;2023-04-29T05:16:23;100491.03;;;13.99;60.92
34237;BME280;20501;45.956;13.632;2023-04-29T05:18:48;100498.13;;;13.49;61.14
34237;BME280;20501;45.956;13.632;2023-04-29T05:21:13;100511.63;;;14.09;60.85
34237;BME280;20501;45.956;13.632;2023-04-29T05:23:39;100510.50;;;14.29;60.27
34237;BME280;20501;45.956;13.632;2023-04-29T05:26:04;100528.84;;;13.31;60.87
34237;BME280;20501;45.956;13.632;2023-04-29T05:28:30;100529.34;;;13.53;62.24
34237;BME280;20501;45.956;13.632;2023-04-29T05:30:55;100534.91;;;13.25;62.84
34237;BME280;20501;45.956;13.632;2023-04-29T05:33:21;100528.28;;;13.45;61.43
34237;BME280;20501;45.956;13.632;2023-04-29T05:35:46;100527.44;;;12.28;64.23
34237;BME280;20501;45.956;13.632;2023-04-29T05:38:12;100533.53;;;12.12;65.25
34237;BME280;20501;45.956;13.632;2023-04-29T05:40:37;100541.38;;;12.33;66.02
34237;BME280;20501;45.956;13.632;2023-04-29T05:43:03;100537.63;;;12.16;66.84
34237;BME280;20501;45.956;13.632;2023-04-29T05:45:28;100536.44;;;12.29;64.81
34237;BME280;20501;45.956;13.632;2023-04-29T05:47:53;100541.97;;;12.09;65.09
34237;BME280;20501;45.956;13.632;2023-04-29T05:50:19;100542.09;;;11.70;66.19
34237;BME280;20501;45.956;13.632;2023-04-29T05:52:45;100540.66;;;11.75;65.46
34237;BME280;20501;45.956;13.632;2023-04-29T05:55:10;100543.47;;;12.39;66.10
34237;BME280;20501;45.956;13.632;2023-04-29T05:57:35;100546.50;;;12.91;63.78
34237;BME280;20501;45.956;13.632;2023-04-29T06:00:01;100542.41;;;13.31;62.70
34237;BME280;20501;45.956;13.632;2023-04-29T06:02:28;100536.44;;;12.65;63.84
34237;BME280;20501;45.956;13.632;2023-04-29T06:04:53;100538.31;;;12.82;62.89
34237;BME280;20501;45.956;13.632;2023-04-29T06:07:19;100531.63;;;12.41;65.04
34237;BME280;20501;45.956;13.632;2023-04-29T06:09:44;100532.94;;;13.35;63.33
34237;BME280;20501;45.956;13.632;2023-04-29T06:12:10;100536.59;;;13.70;62.08
34237;BME280;20501;45.956;13.632;2023-04-29T06:14:35;100534.84;;;14.04;61.11
34237;BME280;20501;45.956;13.632;2023-04-29T06:17:01;100540.19;;;14.30;60.40
34237;BME280;20501;45.956;13.632;2023-04-29T06:19:26;100541.41;;;14.36;59.48
34237;BME280;20501;45.956;13.632;2023-04-29T06:21:52;100554.38;;;13.20;63.07
34237;BME280;20501;45.956;13.632;2023-04-29T06:24:17;100558.81;;;13.74;62.17
34237;BME280;20501;45.956;13.632;2023-04-29T06:26:43;100552.69;;;14.06;60.35
34237;BME280;20501;45.956;13.632;2023-04-29T06:29:08;100547.03;;;13.57;61.58
34237;BME280;20501;45.956;13.632;2023-04-29T06:31:34;100554.09;;;13.50;62.38
34237;BME280;20501;45.956;13.632;2023-04-29T06:33:59;100561.75;;;13.81;62.28
34237;BME280;20501;45.956;13.632;2023-04-29T06:36:24;100562.06;;;12.89;64.98
34237;BME280;20501;45.956;13.632;2023-04-29T06:38:51;100568.03;;;12.56;65.80
34237;BME280;20501;45.956;13.632;2023-04-29T06:41:16;100561.53;;;12.85;64.69
34237;BME280;20501;45.956;13.632;2023-04-29T06:43:42;100562.09;;;13.86;62.58
34237;BME280;20501;45.956;13.632;2023-04-29T06:46:08;100567.56;;;12.97;64.71
34237;BME280;20501;45.956;13.632;2023-04-29T06:48:34;100567.97;;;12.84;65.54
34237;BME280;20501;45.956;13.632;2023-04-29T06:50:59;100563.78;;;13.34;64.18
34237;BME280;20501;45.956;13.632;2023-04-29T06:53:25;100562.56;;;13.28;64.35
34237;BME280;20501;45.956;13.632;2023-04-29T06:55:50;100553.50;;;13.64;63.02
34237;BME280;20501;45.956;13.632;2023-04-29T06:58:16;100560.84;;;12.83;65.13
34237;BME280;20501;45.956;13.632;2023-04-29T07:00:46;100561.47;;;12.77;64.93
34237;BME280;20501;45.956;13.632;2023-04-29T07:03:13;100569.44;;;12.96;64.16
34237;BME280;20501;45.956;13.632;2023-04-29T07:05:39;100576.16;;;12.92;64.52
34237;BME280;20501;45.956;13.632;2023-04-29T07:08:06;100570.38;;;13.05;63.40
34237;BME280;20501;45.956;13.632;2023-04-29T07:10:32;100572.44;;;13.11;63.89
34237;BME280;20501;45.956;13.632;2023-04-29T07:12:58;100565.19;;;13.38;62.32
34237;BME280;20501;45.956;13.632;2023-04-29T07:15:25;100554.25;;;13.83;62.67
34237;BME280;20501;45.956;13.632;2023-04-29T07:17:51;100568.84;;;14.16;61.63
34237;BME280;20501;45.956;13.632;2023-04-29T07:20:16;100563.22;;;14.09;60.27
34237;BME280;20501;45.956;13.632;2023-04-29T07:22:42;100568.88;;;13.55;62.86
34237;BME280;20501;45.956;13.632;2023-04-29T07:25:08;100556.66;;;13.86;62.25
34237;BME280;20501;45.956;13.632;2023-04-29T07:27:34;100559.34;;;14.20;61.58
34237;BME280;20501;45.956;13.632;2023-04-29T07:30:00;100551.88;;;14.14;60.37
34237;BME280;20501;45.956;13.632;2023-04-29T07:32:26;100548.72;;;14.44;60.89
34237;BME280;20501;45.956;13.632;2023-04-29T07:34:51;100545.25;;;14.17;61.24
34237;BME280;20501;45.956;13.632;2023-04-29T07:37:17;100549.75;;;14.43;60.71
34237;BME280;20501;45.956;13.632;2023-04-29T07:39:43;100566.69;;;13.32;64.01
34237;BME280;20501;45.956;13.632;2023-04-29T07:42:08;100571.50;;;13.03;65.07
34237;BME280;20501;45.956;13.632;2023-04-29T07:44:34;100575.78;;;12.87;64.53
34237;BME280;20501;45.956;13.632;2023-04-29T07:47:00;100584.06;;;13.04;64.51
34237;BME280;20501;45.956;13.632;2023-04-29T07:49:26;100598.16;;;13.43;63.88
34237;BME280;20501;45.956;13.632;2023-04-29T07:51:51;100589.75;;;13.55;63.54
34237;BME280;20501;45.956;13.632;2023-04-29T07:54:16;100592.78;;;13.52;63.88
34237;BME280;20501;45.956;13.632;2023-04-29T07:56:47;100586.59;;;13.68;62.67
34237;BME280;20501;45.956;13.632;2023-04-29T07:59:12;100566.97;;;13.74;62.11
34237;BME280;20501;45.956;13.632;2023-04-29T08:01:40;100569.16;;;13.70;61.80
34237;BME280;20501;45.956;13.632;2023-04-29T08:04:05;100562.44;;;14.26;61.88
34237;BME280;20501;45.956;13.632;2023-04-29T08:06:31;100570.16;;;14.04;61.95
34237;BME280;20501;45.956;13.632;2023-04-29T08:08:57;100576.84;;;13.83;63.01
34237;BME280;20501;45.956;13.632;2023-04-29T08:11:22;100575.69;;;13.59;63.87
34237;BME280;20501;45.956;13.632;2023-04-29T08:13:49;100568.38;;;14.21;62.14
34237;BME280;20501;45.956;13.632;2023-04-29T08:16:15;100559.63;;;14.52;61.25
34237;BME280;20501;45.956;13.632;2023-04-29T08:18:40;100568.66;;;14.09;63.84
34237;BME280;20501;45.956;13.632;2023-04-29T08:21:06;100571.41;;;14.18;62.93
34237;BME280;20501;45.956;13.632;2023-04-29T08:23:33;100579.13;;;13.96;63.50
34237;BME280;20501;45.956;13.632;2023-04-29T08:25:59;100575.91;;;14.01;63.29
34237;BME280;20501;45.956;13.632;2023-04-29T08:28:25;100565.31;;;14.24;62.65
34237;BME280;20501;45.956;13.632;2023-04-29T08:30:51;100564.72;;;14.47;61.64
34237;BME280;20501;45.956;13.632;2023-04-29T08:33:17;100564.53;;;14.48;61.54
34237;BME280;20501;45.956;13.632;2023-04-29T08:35:42;100573.56;;;14.57;61.72
34237;BME280;20501;45.956;13.632;2023-04-29T08:38:08;100576.22;;;14.40;63.22
34237;BME280;20501;45.956;13.632;2023-04-29T08:40:44;100575.13;;;14.68;61.30
34237;BME280;20501;45.956;13.632;2023-04-29T08:43:13;100573.47;;;14.83;60.65
34237;BME280;20501;45.956;13.632;2023-04-29T08:45:42;100570.72;;;14.67;62.33
34237;BME280;20501;45.956;13.632;2023-04-29T08:48:08;100565.56;;;14.47;61.99
34237;BME280;20501;45.956;13.632;2023-04-29T08:50:39;100563.06;;;14.70;61.15
34237;BME280;20501;45.956;13.632;2023-04-29T08:53:06;100556.81;;;14.86;60.43
34237;BME280;20501;45.956;13.632;2023-04-29T08:55:36;100559.00;;;14.75;60.04
34237;BME280;20501;45.956;13.632;2023-04-29T08:58:03;100560.72;;;14.84;60.38
34237;BME280;20501;45.956;13.632;2023-04-29T09:00:31;100561.41;;;14.78;60.75
34237;BME280;20501;45.956;13.632;2023-04-29T09:02:57;100561.41;;;14.94;60.30
34237;BME280;20501;45.956;13.632;2023-04-29T09:05:25;100575.88;;;15.03;60.18
34237;BME280;20501;45.956;13.632;2023-04-29T09:07:51;100571.78;;;14.91;60.40
34237;BME280;20501;45.956;13.632;2023-04-29T09:10:17;100572.47;;;14.84;60.21
34237;BME280;20501;45.956;13.632;2023-04-29T09:12:43;100571.59;;;14.84;60.52
34237;BME280;20501;45.956;13.632;2023-04-29T09:15:10;100571.59;;;14.92;60.42
34237;BME280;20501;45.956;13.632;2023-04-29T09:17:46;100562.94;;;14.97;61.69
34237;BME280;20501;45.956;13.632;2023-04-29T09:20:32;100564.66;;;15.14;59.65
34237;BME280;20501;45.956;13.632;2023-04-29T09:23:00;100565.13;;;15.26;59.77
34237;BME280;20501;45.956;13.632;2023-04-29T09:25:27;100564.78;;;15.38;59.16
34237;BME280;20501;45.956;13.632;2023-04-29T09:27:53;100569.16;;;15.55;59.86
34237;BME280;20501;45.956;13.632;2023-04-29T09:30:19;100568.50;;;15.53;59.39
34237;BME280;20501;45.956;13.632;2023-04-29T09:32:58;100567.66;;;15.53;58.65
34237;BME280;20501;45.956;13.632;2023-04-29T09:35:28;100567.63;;;15.69;58.31
34237;BME280;20501;45.956;13.632;2023-04-29T09:38:10;100575.28;;;15.74;56.97
34237;BME280;20501;45.956;13.632;2023-04-29T09:40:36;100574.41;;;15.82;57.62
34237;BME280;20501;45.956;13.632;2023-04-29T09:43:02;100569.78;;;15.82;57.85
34237;BME280;20501;45.956;13.632;2023-04-29T09:45:37;100572.03;;;15.87;58.29
34237;BME280;20501;45.956;13.632;2023-04-29T09:48:03;100568.06;;;16.06;57.99
34237;BME280;20501;45.956;13.632;2023-04-29T09:50:30;100575.97;;;16.24;56.69
34237;BME280;20501;45.956;13.632;2023-04-29T09:52:57;100571.69;;;16.30;55.20
34237;BME280;20501;45.956;13.632;2023-04-29T09:55:22;100570.88;;;16.21;55.14
34237;BME280;20501;45.956;13.632;2023-04-29T09:57:48;100567.34;;;16.44;53.70
34237;BME280;20501;45.956;13.632;2023-04-29T10:00:13;100574.38;;;16.38;53.55
34237;BME280;20501;45.956;13.632;2023-04-29T10:02:45;100573.16;;;16.40;54.87
34237;BME280;20501;45.956;13.632;2023-04-29T10:05:17;100568.06;;;16.69;54.30
34237;BME280;20501;45.956;13.632;2023-04-29T10:07:45;100574.13;;;16.48;54.83
34237;BME280;20501;45.956;13.632;2023-04-29T10:10:10;100572.06;;;16.50;55.75
34237;BME280;20501;45.956;13.632;2023-04-29T10:12:38;100569.63;;;16.63;56.20
34237;BME280;20501;45.956;13.632;2023-04-29T10:15:27;100571.03;;;16.82;55.03
34237;BME280;20501;45.956;13.632;2023-04-29T10:18:13;100572.78;;;16.75;54.28
34237;BME280;20501;45.956;13.632;2023-04-29T10:20:45;100562.06;;;16.74;54.84
34237;BME280;20501;45.956;13.632;2023-04-29T10:23:12;100562.19;;;16.80;55.12
34237;BME280;20501;45.956;13.632;2023-04-29T10:25:38;100565.94;;;17.02;55.42
34237;BME280;20501;45.956;13.632;2023-04-29T10:28:09;100562.59;;;17.00;53.48
34237;BME280;20501;45.956;13.632;2023-04-29T10:30:39;100561.72;;;17.00;54.11
34237;BME280;20501;45.956;13.632;2023-04-29T10:33:07;100563.22;;;17.02;54.60
34237;BME280;20501;45.956;13.632;2023-04-29T10:35:33;100558.84;;;16.93;54.78
34237;BME280;20501;45.956;13.632;2023-04-29T10:38:00;100550.94;;;16.75;54.91
34237;BME280;20501;45.956;13.632;2023-04-29T10:40:39;100540.59;;;16.70;57.15
34237;BME280;20501;45.956;13.632;2023-04-29T10:43:05;100543.75;;;17.06;56.96
34237;BME280;20501;45.956;13.632;2023-04-29T10:45:31;100543.63;;;16.99;56.54
34237;BME280;20501;45.956;13.632;2023-04-29T10:50:34;100537.88;;;17.32;55.08
34237;BME280;20501;45.956;13.632;2023-04-29T10:53:04;100535.97;;;17.17;54.87
34237;BME280;20501;45.956;13.632;2023-04-29T10:55:30;100527.88;;;17.24;52.41
34237;BME280;20501;45.956;13.632;2023-04-29T10:57:56;100521.38;;;17.10;52.72
34237;BME280;20501;45.956;13.632;2023-04-29T11:00:29;100518.94;;;17.15;53.89
34237;BME280;20501;45.956;13.632;2023-04-29T11:02:56;100518.19;;;17.22;53.74
34237;BME280;20501;45.956;13.632;2023-04-29T11:05:35;100514.94;;;17.41;53.84
34237;BME280;20501;45.956;13.632;2023-04-29T11:08:10;100513.03;;;17.27;54.34
34237;BME280;20501;45.956;13.632;2023-04-29T11:10:39;100509.41;;;16.96;54.69
34237;BME280;20501;45.956;13.632;2023-04-29T11:13:25;100511.44;;;17.32;53.43
34237;BME280;20501;45.956;13.632;2023-04-29T11:15:52;100508.72;;;17.47;53.53
34237;BME280;20501;45.956;13.632;2023-04-29T11:18:18;100503.53;;;17.53;52.13
34237;BME280;20501;45.956;13.632;2023-04-29T11:23:40;100496.44;;;17.13;53.83
34237;BME280;20501;45.956;13.632;2023-04-29T11:26:06;100500.25;;;17.42;54.38
34237;BME280;20501;45.956;13.632;2023-04-29T11:28:32;100492.91;;;17.58;52.74
34237;BME280;20501;45.956;13.632;2023-04-29T11:30:59;100489.50;;;18.01;51.01
34237;BME280;20501;45.956;13.632;2023-04-29T11:33:25;100493.09;;;18.01;50.10
34237;BME280;20501;45.956;13.632;2023-04-29T11:35:52;100492.69;;;17.89;50.75
34237;BME280;20501;45.956;13.632;2023-04-29T11:38:28;100483.94;;;17.79;50.70
34237;BME280;20501;45.956;13.632;2023-04-29T11:40:55;100484.50;;;17.74;52.30
34237;BME280;20501;45.956;13.632;2023-04-29T11:43:22;100496.38;;;17.37;52.63
34237;BME280;20501;45.956;13.632;2023-04-29T11:45:48;100497.47;;;17.87;52.18
34237;BME280;20501;45.956;13.632;2023-04-29T11:48:20;100494.97;;;18.01;52.22
34237;BME280;20501;45.956;13.632;2023-04-29T11:50:48;100500.09;;;18.25;51.84
34237;BME280;20501;45.956;13.632;2023-04-29T11:53:14;100481.19;;;17.94;51.60
34237;BME280;20501;45.956;13.632;2023-04-29T11:55:43;100487.22;;;18.04;50.86
34237;BME280;20501;45.956;13.632;2023-04-29T11:58:09;100480.00;;;18.33;51.71
34237;BME280;20501;45.956;13.632;2023-04-29T12:00:35;100485.81;;;17.93;52.64
34237;BME280;20501;45.956;13.632;2023-04-29T12:03:00;100484.78;;;17.94;52.37
34237;BME280;20501;45.956;13.632;2023-04-29T12:05:26;100480.56;;;17.62;52.79
34237;BME280;20501;45.956;13.632;2023-04-29T12:07:53;100488.25;;;17.88;53.31
34237;BME280;20501;45.956;13.632;2023-04-29T12:10:20;100489.88;;;17.38;53.10
34237;BME280;20501;45.956;13.632;2023-04-29T12:12:45;100487.34;;;17.36;54.13
34237;BME280;20501;45.956;13.632;2023-04-29T12:15:12;100480.34;;;18.08;53.07
34237;BME280;20501;45.956;13.632;2023-04-29T12:17:38;100485.59;;;18.47;50.03
34237;BME280;20501;45.956;13.632;2023-04-29T12:20:06;100490.00;;;18.26;51.14
34237;BME280;20501;45.956;13.632;2023-04-29T12:22:33;100461.81;;;18.25;50.21
34237;BME280;20501;45.956;13.632;2023-04-29T12:25:02;100471.31;;;18.08;51.35
34237;BME280;20501;45.956;13.632;2023-04-29T12:27:28;100470.03;;;18.69;49.53
34237;BME280;20501;45.956;13.632;2023-04-29T12:29:55;100473.34;;;18.64;49.80
34237;BME280;20501;45.956;13.632;2023-04-29T12:32:24;100462.03;;;18.46;49.09
34237;BME280;20501;45.956;13.632;2023-04-29T12:34:50;100464.34;;;18.49;49.61
34237;BME280;20501;45.956;13.632;2023-04-29T12:37:21;100455.31;;;18.48;49.38
34237;BME280;20501;45.956;13.632;2023-04-29T12:39:49;100464.44;;;18.55;48.93
34237;BME280;20501;45.956;13.632;2023-04-29T12:42:15;100464.09;;;18.87;49.33
34237;BME280;20501;45.956;13.632;2023-04-29T12:44:44;100467.44;;;18.82;48.68
34237;BME280;20501;45.956;13.632;2023-04-29T12:47:10;100460.56;;;18.71;48.60
34237;BME280;20501;45.956;13.632;2023-04-29T12:49:40;100465.88;;;18.73;48.93
34237;BME280;20501;45.956;13.632;2023-04-29T12:52:06;100455.13;;;18.50;49.07
34237;BME280;20501;45.956;13.632;2023-04-29T12:54:35;100463.97;;;18.52;50.52
34237;BME280;20501;45.956;13.632;2023-04-29T12:57:01;100456.03;;;18.57;49.70
34237;BME280;20501;45.956;13.632;2023-04-29T12:59:27;100464.34;;;18.70;49.30